Terminal Aerodrome Forecast
Issued by NWS Boston, MA

Home | Current Version | Previous Version | Text Only | Print | Product List | Glossary On
Versions: 1 2 3 4 5 6 7 8 9 10 11 12 13 14 15 16 17 18 19 20 21 22 23 24 25 26 27 28 29 30 31 32 33 34 35 36 37 38 39 40 41 42
782
FTUS41 KBOX 080538
TAFPVD
TAF
KPVD 080538Z 0806/0906 04010G17KT P6SM OVC120
     FM080800 04013G20KT P6SM OVC025
     FM081000 03014G23KT 1SM -SN OVC020
     FM081200 03017G36KT 1/2SM SN OVC010
      TEMPO 0813/0817 1/4SM +SN OVC008
     FM081800 01018G39KT 2SM -SN OVC010
     FM090500 35007KT 3SM -SHSN OVC008=

USA.gov is the U.S. government's official web portal to all federal, state and local government web resources and services.